Time;durP1;ratioP1;P1;durP2;ratioP2;P2;SDS_P1;SDS_P2;PMS_P1;PMS_P2;Temp;Humidity;BMP_temperature;BMP_pressure;BME280_temperature;BME280_humidity;BME280_pressure;Samples;Min_cycle;Max_cycle;Signal;HPM_P1;HPM_P2
2023/07/17 00:00:36;;;;;;;8.90;2.50;;;17.20;1.00;;;;;;5066391;28;20416;-70
2023/07/17 00:03:04;;;;;;;9.87;2.33;;;17.20;25.90;;;;;;5066397;28;20757;-69
2023/07/17 00:05:30;;;;;;;11.50;2.35;;;17.10;99.90;;;;;;5066133;28;20400;-68
2023/07/17 00:07:55;;;;;;;7.83;2.07;;;17.10;99.90;;;;;;5065744;28;20404;-69
2023/07/17 00:10:21;;;;;;;11.80;2.42;;;17.10;39.80;;;;;;5066417;28;20404;-69
2023/07/17 00:12:46;;;;;;;11.33;2.47;;;17.10;99.90;;;;;;5066002;28;20408;-68
2023/07/17 00:15:12;;;;;;;11.82;2.25;;;17.10;99.90;;;;;;5067111;28;20400;-69
2023/07/17 00:17:38;;;;;;;11.00;2.40;;;17.10;99.90;;;;;;5066359;28;20427;-69
2023/07/17 00:20:11;;;;;;;8.77;2.08;;;17.00;1.00;;;;;;5066771;28;20403;-68
2023/07/17 00:22:38;;;;;;;10.38;2.58;;;17.00;2.40;;;;;;5077847;28;20413;-68
2023/07/17 00:25:06;;;;;;;8.73;2.38;;;17.00;95.30;;;;;;5057608;28;20460;-68
2023/07/17 00:27:34;;;;;;;8.10;2.17;;;16.90;99.90;;;;;;5048268;28;20482;-69
2023/07/17 00:30:03;;;;;;;8.77;2.22;;;16.90;99.90;;;;;;5067140;28;20434;-69
2023/07/17 00:32:28;;;;;;;9.35;2.47;;;16.90;99.90;;;;;;5066909;28;20411;-69
2023/07/17 00:34:54;;;;;;;9.70;2.53;;;16.90;99.90;;;;;;5066960;28;20395;-69
2023/07/17 00:37:19;;;;;;;9.57;2.40;;;16.90;99.90;;;;;;5066031;28;20431;-69
2023/07/17 00:39:45;;;;;;;9.82;2.20;;;16.90;99.90;;;;;;5049089;28;20923;-68
2023/07/17 00:42:11;;;;;;;8.20;1.90;;;16.90;99.90;;;;;;5069196;28;20411;-69
2023/07/17 00:44:38;;;;;;;10.10;2.50;;;16.90;99.90;;;;;;5085687;28;21151;-69
2023/07/17 00:47:04;;;;;;;9.60;2.55;;;16.90;99.90;;;;;;5070359;28;20407;-69
2023/07/17 00:49:31;;;;;;;10.95;2.83;;;16.90;99.90;;;;;;5070538;28;20525;-68
2023/07/17 00:51:57;;;;;;;9.60;2.50;;;16.90;99.90;;;;;;5070067;28;20764;-69
2023/07/17 00:54:25;;;;;;;8.47;2.20;;;16.90;99.90;;;;;;5052672;28;20479;-69
2023/07/17 00:56:50;;;;;;;9.87;2.30;;;16.90;99.90;;;;;;5070002;28;20408;-69
2023/07/17 00:59:16;;;;;;;10.43;2.28;;;16.90;99.90;;;;;;5069835;28;20427;-69
2023/07/17 01:01:43;;;;;;;9.15;2.63;;;16.90;99.90;;;;;;5069608;28;20908;-69
2023/07/17 01:04:09;;;;;;;12.00;2.50;;;16.90;99.90;;;;;;5070192;28;20897;-69
2023/07/17 01:06:39;;;;;;;11.85;2.80;;;16.90;99.90;;;;;;5069648;28;20404;-70
2023/07/17 01:09:09;;;;;;;13.17;2.90;;;16.90;99.90;;;;;;5070194;28;20402;-69
2023/07/17 01:11:35;;;;;;;9.82;2.30;;;16.90;99.90;;;;;;5069663;28;20474;-69
2023/07/17 01:14:00;;;;;;;8.23;2.30;;;16.80;99.90;;;;;;5069865;28;20479;-69
2023/07/17 01:16:26;;;;;;;10.00;2.45;;;16.90;99.90;;;;;;5069626;28;20404;-68
2023/07/17 01:18:52;;;;;;;10.33;3.23;;;16.80;99.90;;;;;;5069816;28;20427;-68
2023/07/17 01:21:22;;;;;;;9.10;2.50;;;16.90;99.90;;;;;;5069833;28;20403;-69
2023/07/17 01:23:48;;;;;;;7.22;2.05;;;16.90;99.90;;;;;;5055790;28;20397;-70
2023/07/17 01:26:18;;;;;;;7.03;1.87;;;16.80;99.90;;;;;;5051304;28;20404;-69
2023/07/17 01:28:44;;;;;;;5.75;1.70;;;16.70;99.90;;;;;;5069170;28;20404;-69
2023/07/17 01:31:11;;;;;;;5.38;1.70;;;16.60;99.90;;;;;;5069394;28;20392;-68
2023/07/17 01:33:36;;;;;;;6.60;1.60;;;16.60;99.90;;;;;;5051308;28;20407;-69
2023/07/17 01:36:04;;;;;;;5.47;1.27;;;16.50;99.90;;;;;;5068929;28;20410;-68
2023/07/17 01:38:30;;;;;;;5.72;1.42;;;16.50;99.90;;;;;;5069432;28;20427;-69
2023/07/17 01:40:56;;;;;;;5.25;1.58;;;16.50;99.90;;;;;;5069339;28;20408;-69
2023/07/17 01:43:22;;;;;;;5.00;1.52;;;16.40;99.90;;;;;;5069060;28;20392;-69
2023/07/17 01:45:48;;;;;;;5.15;1.58;;;16.40;99.90;;;;;;5069368;28;20418;-70
2023/07/17 01:48:14;;;;;;;5.53;1.60;;;16.40;99.90;;;;;;5069212;28;20478;-69
2023/07/17 01:50:41;;;;;;;4.20;1.58;;;16.40;99.90;;;;;;5051216;28;20439;-69
2023/07/17 01:53:07;;;;;;;5.57;1.60;;;16.30;99.90;;;;;;5068921;28;20429;-69
2023/07/17 01:55:32;;;;;;;6.10;1.80;;;16.30;99.90;;;;;;5069366;28;20404;-69
2023/07/17 01:57:58;;;;;;;5.88;2.20;;;16.30;99.90;;;;;;5068769;28;20510;-69
2023/07/17 02:00:24;;;;;;;5.68;1.98;;;16.30;99.90;;;;;;5069014;28;20404;-69
2023/07/17 02:02:50;;;;;;;6.60;2.00;;;16.30;99.90;;;;;;5068855;28;20434;-69
2023/07/17 02:05:16;;;;;;;5.95;1.98;;;16.30;99.90;;;;;;5069087;28;20769;-69
2023/07/17 02:07:42;;;;;;;6.65;1.90;;;16.30;99.90;;;;;;5051113;28;20487;-69
2023/07/17 02:10:08;;;;;;;9.90;2.10;;;16.30;99.90;;;;;;5068920;28;20479;-69
2023/07/17 02:12:33;;;;;;;6.68;2.47;;;16.30;99.90;;;;;;5068202;28;20399;-69
2023/07/17 02:14:59;;;;;;;9.05;2.42;;;16.30;99.90;;;;;;5068821;28;20445;-68
2023/07/17 02:17:25;;;;;;;7.27;2.23;;;16.30;99.90;;;;;;5068837;28;20459;-69
2023/07/17 02:19:50;;;;;;;9.43;2.47;;;16.30;99.90;;;;;;5068526;28;20900;-68
2023/07/17 02:22:16;;;;;;;7.43;2.33;;;16.30;99.90;;;;;;5068125;28;20402;-69
2023/07/17 02:24:41;;;;;;;8.68;2.70;;;16.20;99.90;;;;;;5068704;28;20445;-69
2023/07/17 02:27:07;;;;;;;8.10;2.40;;;16.30;99.90;;;;;;5068295;28;20460;-69
2023/07/17 02:29:33;;;;;;;7.37;2.40;;;16.30;99.90;;;;;;5067360;28;20408;-69
2023/07/17 02:31:58;;;;;;;8.32;2.58;;;16.20;99.90;;;;;;5076592;28;20750;-68
2023/07/17 02:34:24;;;;;;;9.33;2.70;;;16.20;99.90;;;;;;5048040;28;20404;-69
2023/07/17 02:36:51;;;;;;;7.90;2.20;;;16.20;99.90;;;;;;5068178;28;20528;-69
2023/07/17 02:39:17;;;;;;;10.32;2.72;;;16.20;99.90;;;;;;5067900;28;20473;-69
2023/07/17 02:41:42;;;;;;;7.47;2.43;;;16.20;99.90;;;;;;5067591;28;20399;-69
2023/07/17 02:44:08;;;;;;;7.70;2.55;;;16.20;1.00;;;;;;5043630;28;20408;-69
2023/07/17 02:46:34;;;;;;;7.20;2.30;;;16.20;99.90;;;;;;5068210;28;20407;-68
2023/07/17 02:48:59;;;;;;;8.52;2.47;;;16.20;1.00;;;;;;5067963;28;20407;-69
2023/07/17 02:51:25;;;;;;;8.43;2.20;;;16.10;1.00;;;;;;5083358;28;20446;-68
2023/07/17 02:53:50;;;;;;;7.50;2.10;;;16.10;1.00;;;;;;5068043;28;20789;-69
2023/07/17 02:56:16;;;;;;;8.27;2.65;;;16.10;1.00;;;;;;5068057;28;20416;-69
2023/07/17 02:58:42;;;;;;;8.47;2.50;;;16.10;1.00;;;;;;5067806;28;20829;-68
2023/07/17 03:01:09;;;;;;;8.18;2.42;;;16.10;1.00;;;;;;5083218;28;20407;-69
2023/07/17 03:03:34;;;;;;;6.20;2.30;;;16.10;1.00;;;;;;5067216;28;20433;-69
2023/07/17 03:06:00;;;;;;;6.77;2.00;;;16.10;1.00;;;;;;5066887;28;20415;-69
2023/07/17 03:08:26;;;;;;;6.43;2.10;;;16.10;1.00;;;;;;5067702;28;20439;-69
2023/07/17 03:10:52;;;;;;;7.45;2.65;;;16.10;1.00;;;;;;5049874;28;20415;-69
2023/07/17 03:13:20;;;;;;;7.97;2.13;;;16.00;1.00;;;;;;5065932;28;20416;-68
2023/07/17 03:15:47;;;;;;;9.70;2.10;;;16.00;1.00;;;;;;5082419;28;20469;-68
2023/07/17 03:18:12;;;;;;;7.55;2.50;;;16.00;1.00;;;;;;5066757;28;20951;-68
2023/07/17 03:20:45;;;;;;;8.00;2.20;;;15.90;1.00;;;;;;5067815;28;20411;-69
2023/07/17 03:23:11;;;;;;;8.57;2.30;;;15.90;1.00;;;;;;5067192;28;20396;-68
2023/07/17 03:25:36;;;;;;;8.20;2.38;;;15.90;1.00;;;;;;5067997;28;20445;-69
2023/07/17 03:28:02;;;;;;;7.43;2.03;;;15.90;1.00;;;;;;5067643;28;20406;-68
2023/07/17 03:30:28;;;;;;;7.75;2.13;;;15.90;1.00;;;;;;5032978;28;20437;-69
2023/07/17 03:32:53;;;;;;;9.13;2.60;;;15.90;1.00;;;;;;5067524;28;20494;-69
2023/07/17 03:35:19;;;;;;;7.40;2.03;;;15.90;1.00;;;;;;5067970;28;20396;-68
2023/07/17 03:37:45;;;;;;;7.03;2.03;;;15.90;1.00;;;;;;5067592;28;20423;-69
2023/07/17 03:40:11;;;;;;;8.37;2.43;;;15.80;1.00;;;;;;5066080;28;20403;-68
2023/07/17 03:42:36;;;;;;;6.82;1.90;;;15.80;1.00;;;;;;5067060;28;20404;-68
2023/07/17 03:45:04;;;;;;;7.90;2.03;;;15.80;1.00;;;;;;5067347;28;20774;-69
2023/07/17 03:47:30;;;;;;;7.20;2.37;;;15.70;1.00;;;;;;5067428;28;20959;-68
2023/07/17 03:49:56;;;;;;;8.13;1.88;;;15.70;1.00;;;;;;5033008;28;20439;-69
2023/07/17 03:52:21;;;;;;;9.67;1.90;;;15.70;1.00;;;;;;5083008;28;20447;-68
2023/07/17 03:54:47;;;;;;;9.20;2.10;;;15.70;1.00;;;;;;5067221;28;20414;-68
2023/07/17 03:57:12;;;;;;;7.43;2.10;;;15.70;1.00;;;;;;5067082;28;20403;-68
2023/07/17 03:59:53;;;;;;;6.68;2.00;;;15.70;1.00;;;;;;5067878;28;21015;-69
2023/07/17 04:02:19;;;;;;;7.45;1.95;;;15.60;1.00;;;;;;5067001;28;20450;-69
2023/07/17 04:04:45;;;;;;;6.80;1.83;;;15.60;1.00;;;;;;5067337;28;20507;-69
2023/07/17 04:07:11;;;;;;;7.68;2.15;;;15.60;1.00;;;;;;5067418;28;20419;-69
2023/07/17 04:09:38;;;;;;;7.97;2.20;;;15.60;1.00;;;;;;5067322;28;20449;-69
2023/07/17 04:12:05;;;;;;;11.17;2.20;;;15.60;1.00;;;;;;5066946;28;20419;-68
2023/07/17 04:14:31;;;;;;;8.95;2.17;;;15.60;1.00;;;;;;5067322;28;21240;-68
2023/07/17 04:16:57;;;;;;;8.57;2.13;;;15.60;1.00;;;;;;5069391;28;20408;-68
2023/07/17 04:19:22;;;;;;;7.70;2.40;;;15.60;1.00;;;;;;5070746;28;20423;-68
2023/07/17 04:21:48;;;;;;;7.20;2.00;;;15.50;1.00;;;;;;5070583;28;20420;-69
2023/07/17 04:24:14;;;;;;;8.40;1.98;;;15.50;1.00;;;;;;5071313;28;20476;-69
2023/07/17 04:26:39;;;;;;;7.63;2.27;;;15.50;1.00;;;;;;5086583;28;20400;-68
2023/07/17 04:29:06;;;;;;;7.13;2.10;;;15.50;1.00;;;;;;5070748;28;20852;-68
2023/07/17 04:31:32;;;;;;;8.65;1.95;;;15.50;1.00;;;;;;5070583;28;20404;-69
2023/07/17 04:33:58;;;;;;;7.45;2.20;;;15.50;1.00;;;;;;5071017;28;20770;-69
2023/07/17 04:36:24;;;;;;;9.10;2.03;;;15.50;1.00;;;;;;5070811;28;20416;-69
2023/07/17 04:38:49;;;;;;;9.07;2.13;;;15.60;1.00;;;;;;5070463;28;20435;-68
2023/07/17 04:41:16;;;;;;;8.33;2.03;;;15.60;1.00;;;;;;5051941;28;20420;-69
2023/07/17 04:43:42;;;;;;;6.95;1.90;;;15.70;1.00;;;;;;5070627;28;20404;-68
2023/07/17 04:46:07;;;;;;;8.07;2.07;;;15.70;1.00;;;;;;5070483;28;20445;-68
2023/07/17 04:48:33;;;;;;;10.85;2.38;;;15.80;1.00;;;;;;5070517;28;20403;-68
2023/07/17 04:50:59;;;;;;;9.75;2.45;;;15.80;1.00;;;;;;5070421;28;20403;-69
2023/07/17 04:53:24;;;;;;;7.83;1.80;;;15.90;1.00;;;;;;5069730;28;20967;-68
2023/07/17 04:55:50;;;;;;;8.07;2.15;;;15.90;1.00;;;;;;5086329;28;20442;-69
2023/07/17 04:58:18;;;;;;;8.07;2.47;;;16.00;1.00;;;;;;5070019;28;20428;-69
2023/07/17 05:00:46;;;;;;;7.32;1.70;;;16.00;1.00;;;;;;5069984;28;20411;-69
2023/07/17 05:03:12;;;;;;;9.65;2.67;;;16.10;1.00;;;;;;5070428;28;20438;-68
2023/07/17 05:05:39;;;;;;;8.18;2.28;;;16.10;1.00;;;;;;5070316;28;20403;-69
2023/07/17 05:08:05;;;;;;;7.97;2.38;;;16.20;1.00;;;;;;5070025;28;20434;-69
2023/07/17 05:10:31;;;;;;;10.98;2.50;;;16.20;1.00;;;;;;5069180;28;20400;-68
2023/07/17 05:12:59;;;;;;;7.13;2.00;;;16.30;1.00;;;;;;5069282;28;20410;-67
2023/07/17 05:15:24;;;;;;;9.90;2.10;;;16.30;1.00;;;;;;5051063;28;20919;-67
2023/07/17 05:17:50;;;;;;;6.35;1.88;;;16.30;1.00;;;;;;5050679;28;20428;-67
2023/07/17 05:20:15;;;;;;;10.50;2.37;;;16.40;1.00;;;;;;5067871;28;20462;-67
2023/07/17 05:22:41;;;;;;;6.85;1.90;;;16.40;1.00;;;;;;5068052;28;20408;-69
2023/07/17 05:25:07;;;;;;;9.47;2.40;;;16.40;1.00;;;;;;5070719;28;20407;-68
2023/07/17 05:27:32;;;;;;;8.95;2.65;;;16.40;1.00;;;;;;5073433;28;20476;-69
2023/07/17 05:29:58;;;;;;;7.27;2.30;;;16.50;1.00;;;;;;5067986;28;20403;-68
2023/07/17 05:32:23;;;;;;;10.20;2.50;;;16.50;1.00;;;;;;5068441;28;20569;-68
2023/07/17 05:34:50;;;;;;;8.93;2.67;;;16.60;1.00;;;;;;5068761;28;20410;-68
2023/07/17 05:37:17;;;;;;;8.35;2.35;;;16.60;1.00;;;;;;5068348;28;20441;-68
2023/07/17 05:39:44;;;;;;;10.00;2.75;;;16.60;1.00;;;;;;5068149;28;20403;-68
2023/07/17 05:42:09;;;;;;;9.55;2.17;;;16.70;1.00;;;;;;5034058;28;20408;-68
2023/07/17 05:44:35;;;;;;;10.23;2.43;;;16.70;1.00;;;;;;5068087;28;20401;-68
2023/07/17 05:47:01;;;;;;;10.48;2.47;;;16.70;1.00;;;;;;5068335;28;20424;-69
2023/07/17 05:49:26;;;;;;;8.90;2.43;;;16.70;1.00;;;;;;5050417;28;20810;-69
2023/07/17 05:51:52;;;;;;;10.95;2.78;;;16.80;1.00;;;;;;5068070;28;20478;-68
2023/07/17 05:54:17;;;;;;;9.55;2.67;;;16.80;1.00;;;;;;5067475;28;20863;-68
2023/07/17 05:56:43;;;;;;;10.63;2.23;;;16.80;1.00;;;;;;5050633;28;20400;-68
2023/07/17 05:59:08;;;;;;;9.02;2.63;;;16.90;1.00;;;;;;5069012;28;20439;-68
2023/07/17 06:01:34;;;;;;;8.73;2.40;;;16.90;1.00;;;;;;5069208;28;20930;-68
2023/07/17 06:04:00;;;;;;;8.40;2.42;;;16.90;1.00;;;;;;5068579;28;21247;-68
2023/07/17 06:06:26;;;;;;;10.40;3.00;;;17.00;1.00;;;;;;5034438;28;20482;-68
2023/07/17 06:08:51;;;;;;;6.53;2.45;;;17.00;1.00;;;;;;5051127;28;20412;-68
2023/07/17 06:11:17;;;;;;;9.87;2.80;;;17.00;1.00;;;;;;5069110;28;20411;-68
2023/07/17 06:13:43;;;;;;;10.10;2.63;;;17.10;1.00;;;;;;5065723;28;20413;-69
2023/07/17 06:16:08;;;;;;;9.67;2.70;;;17.20;99.90;;;;;;5063816;28;20533;-68
2023/07/17 06:18:35;;;;;;;10.10;3.50;;;17.30;99.90;;;;;;5068579;28;20485;-68
2023/07/17 06:21:00;;;;;;;9.90;2.80;;;17.30;99.90;;;;;;5050795;28;20439;-68
2023/07/17 06:23:26;;;;;;;10.20;2.87;;;17.20;99.90;;;;;;5068368;28;20439;-68
2023/07/17 06:25:52;;;;;;;9.98;3.35;;;17.20;99.90;;;;;;5068711;28;20400;-68
2023/07/17 06:28:17;;;;;;;11.37;3.33;;;17.30;99.90;;;;;;5068391;28;20461;-68
2023/07/17 06:30:46;;;;;;;9.80;2.90;;;17.30;99.90;;;;;;5068621;28;20881;-68
2023/07/17 06:33:13;;;;;;;9.93;3.13;;;17.40;99.90;;;;;;5068470;28;20399;-68
2023/07/17 06:35:39;;;;;;;12.87;3.30;;;17.50;99.90;;;;;;5084233;28;20498;-68
2023/07/17 06:38:04;;;;;;;9.95;3.00;;;17.60;99.90;;;;;;5083678;28;20527;-68
2023/07/17 06:40:30;;;;;;;10.07;3.03;;;17.60;99.90;;;;;;5083364;28;20404;-68
2023/07/17 06:42:56;;;;;;;9.23;3.13;;;17.70;99.90;;;;;;5068154;28;20846;-68
2023/07/17 06:45:22;;;;;;;10.93;3.37;;;17.70;99.90;;;;;;5050439;28;20412;-68
2023/07/17 06:47:47;;;;;;;10.18;3.53;;;17.80;99.90;;;;;;5068225;28;20785;-69
2023/07/17 06:50:13;;;;;;;12.43;3.50;;;17.80;99.90;;;;;;5067705;28;20762;-69
2023/07/17 06:52:39;;;;;;;11.40;3.47;;;17.90;99.90;;;;;;5083271;28;20403;-68
2023/07/17 06:55:07;;;;;;;11.33;3.47;;;18.00;99.90;;;;;;5067854;28;20396;-68
2023/07/17 06:57:33;;;;;;;11.75;3.60;;;18.10;99.90;;;;;;5049395;28;20435;-68
2023/07/17 06:59:58;;;;;;;14.27;3.90;;;18.20;99.90;;;;;;5067956;28;20399;-69
2023/07/17 07:02:24;;;;;;;14.95;3.92;;;18.20;99.90;;;;;;5049543;28;20404;-68
2023/07/17 07:04:50;;;;;;;10.37;3.63;;;18.30;99.90;;;;;;5067179;28;20412;-68
2023/07/17 07:07:15;;;;;;;11.57;3.77;;;18.50;99.90;;;;;;5067341;28;20509;-69
2023/07/17 07:09:41;;;;;;;9.98;3.67;;;18.60;99.90;;;;;;5067788;28;20395;-67
2023/07/17 07:12:07;;;;;;;13.20;4.00;;;18.70;99.90;;;;;;5067257;28;20971;-67
2023/07/17 07:14:32;;;;;;;11.90;3.60;;;18.70;99.90;;;;;;5049660;28;20420;-68
2023/07/17 07:16:58;;;;;;;12.30;3.93;;;18.70;99.90;;;;;;5058675;28;20938;-67
2023/07/17 07:19:24;;;;;;;11.20;3.50;;;18.60;99.90;;;;;;5067416;28;20439;-68
2023/07/17 07:21:49;;;;;;;11.40;3.50;;;18.70;99.90;;;;;;5067304;28;20399;-67
2023/07/17 07:24:15;;;;;;;10.50;4.15;;;18.80;99.90;;;;;;5067691;28;20401;-67
2023/07/17 07:26:40;;;;;;;12.07;3.57;;;18.90;99.90;;;;;;5067423;28;20973;-68
2023/07/17 07:29:06;;;;;;;11.40;3.40;;;18.90;99.90;;;;;;5049427;28;20411;-67
2023/07/17 07:31:31;;;;;;;11.75;3.92;;;19.00;99.90;;;;;;5067836;28;20407;-67
2023/07/17 07:33:57;;;;;;;9.57;3.57;;;19.10;99.90;;;;;;5067674;28;20411;-67
2023/07/17 07:36:23;;;;;;;8.90;3.33;;;19.20;1.00;;;;;;5067901;28;20895;-67
2023/07/17 07:38:48;;;;;;;9.38;4.20;;;19.10;1.00;;;;;;5067475;28;20514;-67
2023/07/17 07:41:15;;;;;;;12.18;4.25;;;19.10;1.00;;;;;;5066740;28;20499;-67
2023/07/17 07:43:40;;;;;;;9.47;3.57;;;19.10;1.00;;;;;;5067744;28;20408;-67
2023/07/17 07:46:06;;;;;;;15.80;3.67;;;19.10;99.90;;;;;;5067729;28;20488;-68
2023/07/17 07:48:31;;;;;;;8.73;3.10;;;19.10;99.90;;;;;;5067709;28;21015;-68
2023/07/17 07:50:57;;;;;;;7.60;3.05;;;19.20;99.90;;;;;;5069856;28;20402;-68
2023/07/17 07:53:23;;;;;;;14.20;3.90;;;19.20;99.90;;;;;;5053338;28;20404;-68
2023/07/17 07:55:48;;;;;;;11.45;3.70;;;19.30;99.90;;;;;;5071718;28;20796;-68
2023/07/17 07:58:14;;;;;;;9.47;3.37;;;19.40;99.90;;;;;;5071232;28;20429;-68
2023/07/17 08:00:39;;;;;;;8.40;3.27;;;19.30;99.90;;;;;;5071326;28;20416;-68
2023/07/17 08:03:05;;;;;;;7.85;2.97;;;19.20;99.90;;;;;;5070581;28;20432;-67
2023/07/17 08:05:30;;;;;;;8.40;3.13;;;19.00;99.90;;;;;;5053061;28;20399;-68
2023/07/17 08:07:56;;;;;;;10.80;3.20;;;18.80;99.90;;;;;;5071404;28;20445;-68
2023/07/17 08:10:23;;;;;;;9.10;3.10;;;18.70;1.00;;;;;;5086699;28;20422;-68
2023/07/17 08:12:49;;;;;;;8.70;2.83;;;18.70;1.00;;;;;;5071410;28;20765;-67
2023/07/17 08:15:14;;;;;;;8.57;3.10;;;18.80;91.20;;;;;;5070750;28;20411;-68
2023/07/17 08:17:40;;;;;;;11.07;2.93;;;18.90;52.10;;;;;;5070666;28;20427;-67
2023/07/17 08:20:06;;;;;;;11.15;3.03;;;18.90;1.00;;;;;;5071242;28;20407;-68
2023/07/17 08:22:32;;;;;;;7.90;3.15;;;19.00;1.00;;;;;;5070816;28;20400;-68
2023/07/17 08:24:58;;;;;;;7.57;2.95;;;19.10;1.30;;;;;;5052794;28;20408;-68
2023/07/17 08:27:23;;;;;;;7.93;2.63;;;19.20;1.00;;;;;;5071055;28;20448;-67
2023/07/17 08:29:49;;;;;;;7.90;2.75;;;19.20;99.90;;;;;;5052932;28;20782;-68
2023/07/17 08:32:14;;;;;;;6.87;2.70;;;19.30;99.90;;;;;;5070816;28;20396;-67
2023/07/17 08:34:40;;;;;;;7.60;2.60;;;19.30;99.90;;;;;;5070173;28;20418;-68
2023/07/17 08:37:06;;;;;;;10.27;3.10;;;19.40;99.90;;;;;;5070616;28;20403;-68
2023/07/17 08:39:31;;;;;;;10.10;3.23;;;19.50;81.20;;;;;;5070649;28;20631;-68
2023/07/17 08:41:57;;;;;;;8.82;3.53;;;19.50;24.90;;;;;;5070200;28;20832;-68
2023/07/17 08:44:23;;;;;;;7.57;3.70;;;19.60;1.00;;;;;;5070322;28;20406;-68
2023/07/17 08:46:51;;;;;;;9.98;3.30;;;19.60;99.90;;;;;;5070557;28;20449;-67
2023/07/17 08:49:19;;;;;;;9.75;3.15;;;19.60;99.90;;;;;;5070640;28;20456;-67
2023/07/17 08:51:49;;;;;;;9.57;3.00;;;19.60;99.90;;;;;;5070362;28;20411;-68
2023/07/17 08:54:18;;;;;;;8.00;3.10;;;19.70;1.00;;;;;;5069957;28;20455;-68
2023/07/17 08:56:44;;;;;;;8.65;3.50;;;19.80;17.30;;;;;;5071013;28;20428;-68
2023/07/17 08:59:10;;;;;;;8.20;3.08;;;20.00;1.00;;;;;;5085639;28;20766;-68
2023/07/17 09:01:37;;;;;;;11.77;3.67;;;20.00;99.90;;;;;;5069346;28;20407;-68
2023/07/17 09:04:06;;;;;;;8.50;3.05;;;20.00;99.90;;;;;;5070065;28;20411;-67
2023/07/17 09:06:32;;;;;;;10.43;3.25;;;19.90;99.90;;;;;;5069842;28;21005;-68
2023/07/17 09:08:59;;;;;;;9.33;2.97;;;19.80;99.90;;;;;;5069560;28;20396;-68
2023/07/17 09:11:25;;;;;;;8.68;2.92;;;19.70;58.30;;;;;;5085458;28;20478;-68
2023/07/17 09:13:51;;;;;;;9.23;2.80;;;19.60;23.20;;;;;;5069636;28;20479;-67
2023/07/17 09:16:19;;;;;;;6.10;2.13;;;19.40;34.50;;;;;;5051657;28;20412;-68
2023/07/17 09:18:52;;;;;;;5.97;2.03;;;19.40;1.00;;;;;;5068723;28;20436;-68
2023/07/17 09:21:20;;;;;;;7.60;2.25;;;19.40;1.00;;;;;;5069519;28;20415;-68
2023/07/17 09:23:47;;;;;;;7.45;2.35;;;19.30;99.90;;;;;;5069507;28;20464;-68
2023/07/17 09:26:14;;;;;;;6.80;2.00;;;19.30;99.90;;;;;;5069439;28;20408;-68
2023/07/17 09:28:49;;;;;;;6.38;2.40;;;19.30;99.90;;;;;;5069523;28;20515;-67
2023/07/17 09:31:27;;;;;;;10.93;2.60;;;19.30;1.00;;;;;;5068304;28;20921;-68
2023/07/17 09:33:59;;;;;;;7.18;2.17;;;19.40;99.90;;;;;;5069447;28;20470;-68
2023/07/17 09:36:25;;;;;;;7.10;2.00;;;19.70;99.90;;;;;;5085081;28;20422;-67
2023/07/17 09:38:55;;;;;;;5.50;1.80;;;19.90;99.90;;;;;;5069811;28;20427;-68
2023/07/17 09:41:23;;;;;;;4.50;1.77;;;20.30;99.90;;;;;;5084720;28;20408;-68
2023/07/17 09:43:53;;;;;;;5.55;1.80;;;20.80;99.90;;;;;;5069189;28;20399;-68
2023/07/17 09:46:19;;;;;;;7.82;1.83;;;21.20;1.00;;;;;;5085114;28;20947;-68
2023/07/17 09:48:45;;;;;;;5.95;1.63;;;21.60;99.90;;;;;;5051653;28;20433;-68
2023/07/17 09:51:12;;;;;;;6.87;1.80;;;22.00;1.00;;;;;;5069140;28;20391;-69
2023/07/17 09:53:39;;;;;;;6.05;1.77;;;22.40;99.90;;;;;;5084970;28;20450;-68
2023/07/17 09:56:09;;;;;;;5.03;1.83;;;22.50;98.80;;;;;;5069307;28;20465;-68
2023/07/17 09:58:36;;;;;;;7.57;1.70;;;22.40;1.00;;;;;;5069089;28;20492;-68
2023/07/17 10:01:03;;;;;;;4.28;1.25;;;22.30;1.00;;;;;;5069255;28;20396;-68
2023/07/17 10:03:31;;;;;;;6.25;1.65;;;22.30;99.90;;;;;;5069369;28;20396;-69
2023/07/17 10:05:58;;;;;;;4.75;1.58;;;22.40;99.90;;;;;;5069251;28;20408;-68
2023/07/17 10:08:24;;;;;;;5.38;1.20;;;22.60;99.90;;;;;;5068659;28;20404;-68
2023/07/17 10:10:50;;;;;;;6.78;1.40;;;23.00;99.90;;;;;;5060703;28;20460;-68
2023/07/17 10:13:16;;;;;;;5.00;1.37;;;23.20;99.90;;;;;;5050556;28;20999;-68
2023/07/17 10:15:42;;;;;;;5.43;1.30;;;23.30;99.90;;;;;;5068803;28;20785;-68
2023/07/17 10:18:10;;;;;;;4.30;1.03;;;23.50;99.90;;;;;;5068393;28;20428;-69
2023/07/17 10:20:37;;;;;;;5.45;1.20;;;23.50;99.90;;;;;;5055942;28;20421;-68
2023/07/17 10:23:03;;;;;;;5.45;1.40;;;23.50;99.90;;;;;;5067553;28;20506;-68
2023/07/17 10:25:29;;;;;;;5.17;1.70;;;23.50;99.90;;;;;;5068754;28;20438;-68
2023/07/17 10:27:57;;;;;;;6.30;1.30;;;23.50;99.90;;;;;;5068684;28;20407;-71
2023/07/17 10:30:34;;;;;;;3.83;1.00;;;23.70;99.90;;;;;;5061291;28;20735;-68
2023/07/17 10:33:15;;;;;;;4.85;1.00;;;23.90;99.90;;;;;;5062350;28;20416;-67
2023/07/17 10:35:57;;;;;;;4.50;1.00;;;23.70;99.90;;;;;;5051509;28;20474;-68
2023/07/17 10:38:23;;;;;;;5.03;1.20;;;23.80;99.90;;;;;;5061688;28;20433;-68
2023/07/17 10:41:00;;;;;;;5.40;0.93;;;23.80;99.90;;;;;;5065856;28;20412;-68
2023/07/17 10:43:26;;;;;;;5.00;1.00;;;23.60;99.90;;;;;;5046474;28;20481;-68
2023/07/17 10:45:52;;;;;;;6.05;1.17;;;23.20;99.90;;;;;;5067042;28;20395;-69
2023/07/17 10:48:18;;;;;;;3.92;1.00;;;22.90;99.90;;;;;;5049088;28;20418;-68
2023/07/17 10:50:52;;;;;;;4.35;1.02;;;22.80;99.90;;;;;;5066912;28;20407;-68
2023/07/17 10:53:18;;;;;;;4.53;0.93;;;22.80;99.90;;;;;;5066904;28;20411;-68
2023/07/17 10:55:46;;;;;;;3.75;0.85;;;23.10;99.90;;;;;;5063318;28;20461;-68
2023/07/17 10:58:12;;;;;;;4.60;0.93;;;23.40;99.90;;;;;;5066081;28;20920;-68
2023/07/17 11:00:44;;;;;;;5.05;0.93;;;23.70;99.90;;;;;;5065679;28;20409;-68
2023/07/17 11:03:12;;;;;;;6.38;1.17;;;23.80;99.90;;;;;;5065811;28;21126;-68
2023/07/17 11:05:40;;;;;;;3.67;1.00;;;23.70;99.90;;;;;;5062659;28;20406;-68
2023/07/17 11:08:07;;;;;;;3.67;1.00;;;23.60;99.90;;;;;;5068134;28;20776;-68
2023/07/17 11:10:34;;;;;;;6.78;1.00;;;23.60;99.90;;;;;;5068003;28;20422;-70
2023/07/17 11:13:02;;;;;;;5.15;1.20;;;23.50;99.90;;;;;;5067856;28;20403;-68
2023/07/17 11:15:33;;;;;;;4.00;1.08;;;23.30;99.90;;;;;;5076822;28;20415;-68
2023/07/17 11:18:00;;;;;;;3.83;1.20;;;23.40;99.90;;;;;;5084670;28;20420;-68
2023/07/17 11:20:27;;;;;;;7.25;1.23;;;23.20;99.90;;;;;;5056792;28;20437;-68
2023/07/17 11:22:52;;;;;;;6.97;1.30;;;23.10;99.90;;;;;;5071931;28;20408;-69
2023/07/17 11:25:19;;;;;;;5.25;1.00;;;23.00;99.90;;;;;;5067034;28;20408;-71
2023/07/17 11:27:46;;;;;;;5.68;1.10;;;23.00;99.90;;;;;;5067675;28;20924;-71
2023/07/17 11:30:26;;;;;;;7.57;1.13;;;23.30;99.90;;;;;;5067955;28;20404;-71
2023/07/17 11:33:04;;;;;;;4.47;0.98;;;23.80;99.90;;;;;;5053651;28;20865;-71
2023/07/17 11:35:52;;;;;;;4.82;1.30;;;24.20;99.90;;;;;;5067830;28;20408;-71
2023/07/17 11:38:19;;;;;;;6.60;1.40;;;24.50;99.90;;;;;;5051786;28;20433;-67
2023/07/17 11:40:51;;;;;;;4.28;1.20;;;24.80;99.90;;;;;;5070586;28;20506;-70
2023/07/17 11:43:35;;;;;;;4.57;1.10;;;25.10;99.90;;;;;;5070637;28;20565;-70
2023/07/17 11:46:04;;;;;;;4.90;1.00;;;25.40;99.90;;;;;;5062496;28;20403;-69
2023/07/17 11:48:35;;;;;;;4.60;1.07;;;25.30;99.90;;;;;;5068562;28;20415;-68
2023/07/17 11:51:03;;;;;;;6.15;1.40;;;25.00;99.90;;;;;;5046992;28;20408;-69
2023/07/17 11:53:28;;;;;;;4.90;1.20;;;24.80;99.90;;;;;;5070524;28;20415;-69
2023/07/17 11:55:54;;;;;;;4.43;1.45;;;24.70;99.90;;;;;;5067703;28;20454;-69
2023/07/17 11:58:29;;;;;;;5.83;1.60;;;24.40;99.90;;;;;;5066643;28;20920;-69
2023/07/17 12:00:55;;;;;;;5.45;1.38;;;24.50;99.90;;;;;;5046670;28;20901;-70
2023/07/17 12:03:22;;;;;;;4.00;1.38;;;24.70;99.90;;;;;;5072077;28;20403;-69
2023/07/17 12:05:48;;;;;;;4.00;1.30;;;25.00;99.90;;;;;;5069249;28;20766;-69
2023/07/17 12:08:14;;;;;;;3.38;1.10;;;25.10;99.90;;;;;;5066625;28;20435;-69
2023/07/17 12:10:40;;;;;;;4.70;1.50;;;24.90;99.90;;;;;;5067411;28;20392;-69
2023/07/17 12:13:06;;;;;;;3.92;1.30;;;24.90;99.90;;;;;;5067961;28;20757;-69
2023/07/17 12:15:32;;;;;;;3.45;1.38;;;24.90;99.90;;;;;;5067584;28;20407;-70
2023/07/17 12:17:58;;;;;;;5.22;1.48;;;24.90;99.90;;;;;;5066593;28;20428;-70
2023/07/17 12:20:26;;;;;;;4.35;1.17;;;24.80;99.90;;;;;;5062486;28;20393;-69
2023/07/17 12:22:53;;;;;;;6.03;1.48;;;24.90;99.90;;;;;;5068002;28;20415;-70
2023/07/17 12:25:19;;;;;;;4.77;1.27;;;25.10;99.90;;;;;;5067026;28;20398;-70
2023/07/17 12:27:45;;;;;;;5.68;1.17;;;25.40;99.90;;;;;;5073158;28;20756;-68
2023/07/17 12:30:11;;;;;;;3.00;0.98;;;25.40;99.90;;;;;;5067012;28;20507;-69
2023/07/17 12:32:38;;;;;;;4.00;1.10;;;25.00;99.90;;;;;;5068316;28;20841;-67
2023/07/17 12:35:08;;;;;;;4.18;1.17;;;24.60;99.90;;;;;;5066830;28;21513;-68
2023/07/17 12:37:34;;;;;;;3.67;1.35;;;24.30;99.90;;;;;;5068795;28;20484;-69
2023/07/17 12:40:00;;;;;;;4.53;1.27;;;23.90;99.90;;;;;;5070366;28;20439;-67
2023/07/17 12:42:26;;;;;;;4.18;1.08;;;23.50;99.90;;;;;;5056144;28;20417;-67
2023/07/17 12:44:52;;;;;;;4.97;1.00;;;23.00;99.90;;;;;;5070855;28;20438;-68